createdAt,value
2018-03-23T09:18:09.237Z,200
2018-03-23T09:18:34.676Z,220
2018-03-23T09:19:00.201Z,235
2018-03-23T09:19:25.687Z,235
2018-03-23T09:19:51.206Z,230
2018-03-23T09:20:16.628Z,225
2018-03-23T09:20:42.152Z,225
2018-03-23T09:21:07.646Z,245
2018-03-23T09:21:33.099Z,265
2018-03-23T09:21:58.699Z,280
2018-03-23T09:22:24.229Z,285
2018-03-23T09:22:49.825Z,270
2018-03-23T09:23:15.297Z,250
2018-03-23T09:23:40.809Z,235
2018-03-23T09:24:06.337Z,220
2018-03-23T09:24:31.808Z,215
2018-03-23T09:24:57.276Z,215
2018-03-23T09:25:22.737Z,220
2018-03-23T09:25:48.242Z,225
2018-03-23T09:26:13.689Z,220
2018-03-23T09:26:39.251Z,205
2018-03-23T09:27:04.760Z,190
2018-03-23T09:27:30.322Z,175
2018-03-23T09:27:55.714Z,160
2018-03-23T09:28:21.391Z,160
2018-03-23T09:28:46.832Z,160
2018-03-23T09:29:12.322Z,175
2018-03-23T09:29:37.867Z,185
2018-03-23T09:30:03.310Z,195
2018-03-23T09:30:28.785Z,210
2018-03-23T09:30:54.294Z,225
2018-03-23T09:31:19.813Z,230
2018-03-23T09:31:45.315Z,235
2018-03-23T09:32:10.778Z,240
2018-03-23T09:32:36.310Z,245
2018-03-23T09:33:01.738Z,260
2018-03-23T09:33:27.283Z,270
2018-03-23T09:33:52.763Z,265
2018-03-23T09:34:18.247Z,265
2018-03-23T09:34:43.742Z,260
2018-03-23T09:35:09.177Z,245
2018-03-23T09:35:34.635Z,240
2018-03-23T09:36:00.180Z,245
2018-03-23T09:36:25.640Z,245
2018-03-23T09:36:51.078Z,255
2018-03-23T09:37:16.740Z,275
2018-03-23T09:37:42.171Z,295
2018-03-23T09:38:07.690Z,315
2018-03-23T09:38:33.220Z,325
2018-03-23T09:38:58.697Z,330
2018-03-23T09:39:24.188Z,320
2018-03-23T09:39:49.671Z,305
2018-03-23T09:40:15.087Z,285
2018-03-23T09:40:40.600Z,275
2018-03-23T09:41:06.060Z,290
2018-03-23T09:41:31.523Z,305
2018-03-23T09:41:57.065Z,290
2018-03-23T09:42:22.498Z,260
2018-03-23T09:42:47.940Z,240
2018-03-23T09:43:13.558Z,225
2018-03-23T09:43:39.025Z,225
2018-03-23T09:44:04.573Z,210
2018-03-23T09:44:30.042Z,195
2018-03-23T09:44:55.480Z,185
2018-03-23T09:45:21.019Z,200
2018-03-23T09:45:46.529Z,215
2018-03-23T09:46:11.965Z,235
2018-03-23T09:46:37.500Z,235
2018-03-23T09:47:02.953Z,215
2018-03-23T09:47:28.402Z,185
2018-03-23T09:47:53.930Z,185
2018-03-23T09:48:19.410Z,190
2018-03-23T09:48:44.984Z,185
2018-03-23T09:49:10.371Z,185
2018-03-23T09:49:35.896Z,210
2018-03-23T09:50:01.312Z,215
2018-03-23T09:50:26.877Z,220
2018-03-23T09:50:52.304Z,215
2018-03-23T09:51:17.813Z,200
2018-03-23T09:51:43.288Z,185
2018-03-23T09:52:08.792Z,165
2018-03-23T09:52:34.305Z,150
2018-03-23T09:52:59.764Z,135
2018-03-23T09:53:25.206Z,130
2018-03-23T09:53:50.842Z,130
2018-03-23T09:54:16.260Z,130
2018-03-23T09:54:41.770Z,135
2018-03-23T09:55:07.280Z,140
2018-03-23T09:55:32.759Z,140
2018-03-23T09:55:58.225Z,140
2018-03-23T09:56:23.730Z,135
2018-03-23T09:56:49.250Z,135
2018-03-23T09:57:14.775Z,140
2018-03-23T09:57:40.311Z,135
2018-03-23T09:58:05.708Z,135
2018-03-23T09:58:31.203Z,145
2018-03-23T09:58:56.676Z,145
2018-03-23T09:59:22.135Z,145
2018-03-23T09:59:47.652Z,145
2018-03-23T10:00:13.122Z,150
2018-03-23T10:00:38.698Z,155
2018-03-23T10:01:04.142Z,150
2018-03-23T10:01:29.580Z,145
2018-03-23T10:01:55.140Z,135
2018-03-23T10:02:20.543Z,130
2018-03-23T10:03:44.590Z,165
2018-03-23T10:04:10.049Z,160
2018-03-23T10:04:35.527Z,155
2018-03-23T10:05:01.068Z,160
2018-03-23T10:05:26.591Z,180
2018-03-23T10:05:52.066Z,195
2018-03-23T10:06:17.567Z,215
2018-03-23T10:06:43.055Z,230
2018-03-23T10:07:08.533Z,250
2018-03-23T10:07:34.056Z,270
2018-03-23T10:07:59.528Z,285
2018-03-23T10:08:25.049Z,305
2018-03-23T10:08:50.554Z,310
2018-03-23T10:09:16.140Z,295
2018-03-23T10:09:41.607Z,265
2018-03-23T10:10:07.134Z,265
2018-03-23T10:10:32.581Z,285
2018-03-23T10:11:46.399Z,335
2018-03-23T10:12:11.892Z,350
2018-03-23T10:12:37.337Z,365
2018-03-23T10:13:02.807Z,375
2018-03-23T10:13:28.310Z,380
2018-03-23T10:13:53.780Z,390
2018-03-23T10:14:19.253Z,390
2018-03-23T10:14:44.754Z,400
2018-03-23T10:15:10.230Z,395
2018-03-23T10:15:35.663Z,380
2018-03-23T10:16:01.108Z,350
2018-03-23T10:16:26.663Z,315
2018-03-23T10:16:52.066Z,275
2018-03-23T10:17:17.574Z,255
2018-03-23T10:17:43.050Z,255
2018-03-23T10:18:08.580Z,255
2018-03-23T10:18:34.053Z,250
2018-03-23T10:18:59.530Z,245
2018-03-23T10:19:25.046Z,235
2018-03-23T10:19:50.547Z,225
2018-03-23T10:20:16.000Z,210
2018-03-23T10:20:41.648Z,195
2018-03-23T10:21:07.077Z,185
2018-03-23T10:21:32.485Z,180
2018-03-23T10:21:57.968Z,175
2018-03-23T10:22:23.432Z,160
2018-03-23T10:22:48.952Z,160
2018-03-23T10:23:14.385Z,160
2018-03-23T10:23:39.897Z,165
2018-03-23T10:24:05.432Z,175
2018-03-23T10:24:30.905Z,195
2018-03-23T10:24:56.439Z,220
2018-03-23T10:25:21.858Z,250
2018-03-23T10:25:47.442Z,270
2018-03-23T10:26:12.928Z,270
2018-03-23T10:26:38.419Z,255
2018-03-23T10:27:03.893Z,235
2018-03-23T10:27:29.451Z,215
2018-03-23T10:27:55.025Z,200
2018-03-23T10:28:20.583Z,205
2018-03-23T10:28:46.145Z,205
2018-03-23T10:29:11.548Z,210
2018-03-23T10:29:37.058Z,215
2018-03-23T10:30:02.614Z,215
2018-03-23T10:30:28.126Z,230
2018-03-23T10:30:53.606Z,250
2018-03-23T10:31:19.124Z,295
2018-03-23T10:31:44.598Z,325
2018-03-23T10:32:10.090Z,345
2018-03-23T10:32:35.592Z,360
2018-03-23T10:33:01.072Z,365
2018-03-23T10:33:26.554Z,365
2018-03-23T10:33:52.138Z,365
2018-03-23T10:34:17.651Z,365
2018-03-23T10:34:43.119Z,360
2018-03-23T10:35:08.646Z,345
2018-03-23T10:35:34.151Z,325
2018-03-23T10:35:59.688Z,305
2018-03-23T10:36:25.137Z,305
2018-03-23T10:36:50.794Z,315
2018-03-23T10:37:16.217Z,330
2018-03-23T10:37:41.677Z,345
2018-03-23T10:38:07.167Z,345
2018-03-23T10:38:32.707Z,345
2018-03-23T10:38:58.271Z,345
2018-03-23T10:39:23.747Z,345
2018-03-23T10:39:49.255Z,345
2018-03-23T10:40:14.735Z,340
2018-03-23T10:40:40.324Z,345
2018-03-23T10:41:05.797Z,340
2018-03-23T10:41:31.321Z,335
2018-03-23T10:41:56.766Z,335
2018-03-23T10:42:22.294Z,340
2018-03-23T10:42:47.826Z,345
2018-03-23T10:43:13.310Z,340
2018-03-23T10:43:38.806Z,320
2018-03-23T10:44:04.326Z,305
2018-03-23T10:44:29.882Z,305
2018-03-23T10:44:55.357Z,300
2018-03-23T10:45:20.786Z,290
2018-03-23T10:45:46.298Z,280
2018-03-23T10:46:11.851Z,260
2018-03-23T10:46:37.348Z,245
2018-03-23T10:47:02.901Z,230
2018-03-23T10:47:28.367Z,225
2018-03-23T10:47:53.812Z,215
2018-03-23T10:48:19.335Z,200
2018-03-23T10:48:44.789Z,190
2018-03-23T10:49:10.295Z,185
2018-03-23T10:49:35.824Z,180
2018-03-23T10:50:01.301Z,180
2018-03-23T10:50:26.908Z,180
2018-03-23T10:50:52.373Z,185
2018-03-23T10:51:17.882Z,190
2018-03-23T10:52:26.612Z,175
2018-03-23T10:52:52.101Z,185
2018-03-23T10:53:17.606Z,195
2018-03-23T10:53:43.095Z,200
2018-03-23T10:54:08.621Z,195
2018-03-23T10:54:34.105Z,185
2018-03-23T10:54:59.695Z,180
2018-03-23T10:55:25.098Z,190
2018-03-23T10:55:50.612Z,225
2018-03-23T10:56:16.164Z,265
2018-03-23T10:56:41.686Z,285
2018-03-23T10:57:07.188Z,300
2018-03-23T10:57:32.715Z,320
2018-03-23T10:57:58.224Z,335
2018-03-23T10:58:23.709Z,360
2018-03-23T10:58:49.217Z,370
2018-03-23T10:59:14.696Z,365
2018-03-23T10:59:40.215Z,355
2018-03-23T11:00:05.778Z,345
2018-03-23T11:00:31.276Z,335
2018-03-23T11:00:56.774Z,325
2018-03-23T11:01:22.274Z,340
2018-03-23T11:01:47.760Z,360
2018-03-23T11:02:13.393Z,380
2018-03-23T11:02:38.829Z,395
2018-03-23T11:03:04.332Z,400
2018-03-23T11:03:29.863Z,405
2018-03-23T11:03:55.362Z,400
2018-03-23T11:04:20.827Z,390
2018-03-23T11:04:46.360Z,385
2018-03-23T11:05:11.965Z,395
2018-03-23T11:05:37.466Z,395
2018-03-23T11:06:02.935Z,395
2018-03-23T11:06:28.425Z,390
2018-03-23T11:07:52.485Z,375
2018-03-23T11:08:18.024Z,375
2018-03-23T11:08:43.533Z,370
2018-03-23T11:09:09.029Z,370
2018-03-23T11:09:34.517Z,365
2018-03-23T11:10:00.029Z,360
2018-03-23T11:10:25.569Z,360
2018-03-23T11:10:51.108Z,360
2018-03-23T11:11:16.659Z,360
2018-03-23T11:11:42.129Z,365
2018-03-23T11:12:07.712Z,365
2018-03-23T11:12:33.193Z,370
2018-03-23T11:12:58.732Z,370
2018-03-23T11:13:24.239Z,360
2018-03-23T11:13:49.665Z,360
2018-03-23T11:14:15.193Z,375
2018-03-23T11:14:40.740Z,375
2018-03-23T11:15:06.224Z,360
2018-03-23T11:15:31.712Z,350
2018-03-23T11:15:57.208Z,345
2018-03-23T11:16:22.768Z,345
2018-03-23T11:16:48.185Z,360
2018-03-23T11:17:13.666Z,380
2018-03-23T11:17:39.157Z,385
2018-03-23T11:18:04.619Z,375
2018-03-23T11:18:30.120Z,375
2018-03-23T11:18:55.578Z,370
2018-03-23T11:19:21.049Z,365
2018-03-23T11:19:46.551Z,365
2018-03-23T11:20:12.051Z,375
2018-03-23T11:20:37.569Z,380
2018-03-23T11:21:03.106Z,380
2018-03-23T11:21:28.596Z,385
2018-03-23T11:21:54.159Z,385
2018-03-23T11:22:19.727Z,385
2018-03-23T11:22:45.442Z,380
2018-03-23T11:23:10.852Z,370
2018-03-23T11:23:36.317Z,365
2018-03-23T11:24:01.777Z,370
2018-03-23T11:24:27.573Z,375
2018-03-23T11:24:53.024Z,365
2018-03-23T11:25:18.486Z,360
2018-03-23T11:25:44.027Z,355
2018-03-23T11:26:09.480Z,350
2018-03-23T11:26:34.977Z,345
2018-03-23T11:27:00.475Z,355
2018-03-23T11:27:26.006Z,350
2018-03-23T11:27:51.473Z,355
2018-03-23T11:28:16.935Z,365
2018-03-23T11:28:42.452Z,375
2018-03-23T11:29:07.965Z,380
2018-03-23T11:29:33.449Z,390
2018-03-23T11:29:58.984Z,400
2018-03-23T11:30:24.488Z,405
2018-03-23T11:30:49.966Z,395
2018-03-23T11:31:15.498Z,385
2018-03-23T11:31:40.979Z,385
2018-03-23T11:32:06.464Z,375
2018-03-23T11:32:31.971Z,375
2018-03-23T11:32:57.483Z,365
2018-03-23T11:33:22.995Z,355
2018-03-23T11:33:48.480Z,355
2018-03-23T11:34:14.005Z,360
2018-03-23T11:34:39.494Z,360
2018-03-23T11:35:04.987Z,360
2018-03-23T11:35:30.511Z,365
2018-03-23T11:35:56.017Z,350
2018-03-23T11:36:21.523Z,335
2018-03-23T11:36:46.988Z,315
2018-03-23T11:37:12.519Z,315
2018-03-23T11:37:37.995Z,320
2018-03-23T11:38:03.476Z,325
2018-03-23T11:38:28.976Z,320
2018-03-23T11:38:54.487Z,300
2018-03-23T11:39:19.927Z,280
2018-03-23T11:39:45.412Z,260
2018-03-23T11:40:10.896Z,240
2018-03-23T11:40:36.373Z,230
2018-03-23T11:41:01.889Z,220
2018-03-23T11:41:27.356Z,225
2018-03-23T11:41:52.912Z,230
2018-03-23T11:42:18.419Z,230
2018-03-23T11:42:43.882Z,225
2018-03-23T11:43:09.436Z,220
2018-03-23T11:43:34.945Z,220
2018-03-23T11:44:00.451Z,220
2018-03-23T11:44:25.952Z,225
2018-03-23T11:44:51.410Z,225
2018-03-23T11:45:16.840Z,230
2018-03-23T11:45:42.439Z,235
2018-03-23T11:46:07.906Z,235
2018-03-23T11:46:33.364Z,235
2018-03-23T11:46:58.895Z,230
2018-03-23T11:47:24.455Z,230
2018-03-23T11:48:43.364Z,250
2018-03-23T11:49:08.851Z,265
2018-03-23T11:49:34.325Z,275
2018-03-23T11:50:58.667Z,290
2018-03-23T11:51:24.391Z,290
2018-03-23T11:52:38.167Z,290
2018-03-23T11:53:03.676Z,280
2018-03-23T11:53:29.172Z,280
2018-03-23T11:53:54.653Z,275
2018-03-23T11:54:20.152Z,270
2018-03-23T11:54:45.668Z,265
2018-03-23T11:55:11.196Z,260
2018-03-23T11:55:37.575Z,250
2018-03-23T11:56:02.991Z,235
2018-03-23T11:56:28.675Z,215
2018-03-23T11:56:54.209Z,200
2018-03-23T11:58:02.971Z,240
2018-03-23T11:58:28.508Z,250
2018-03-23T11:58:53.992Z,245
2018-03-23T11:59:19.685Z,235
2018-03-23T11:59:45.292Z,220
2018-03-23T12:00:11.019Z,230
2018-03-23T12:00:36.512Z,250
2018-03-23T12:01:02.077Z,265
2018-03-23T12:01:27.574Z,275
2018-03-23T12:01:53.085Z,260
2018-03-23T12:02:18.595Z,240
2018-03-23T12:02:44.074Z,230
2018-03-23T12:03:09.562Z,230
2018-03-23T12:03:35.048Z,240
2018-03-23T12:04:49.037Z,260
2018-03-23T12:05:14.528Z,250
2018-03-23T12:05:39.983Z,250
2018-03-23T12:06:05.517Z,270
2018-03-23T12:06:31.035Z,295
2018-03-23T12:06:56.536Z,315
2018-03-23T12:07:22.043Z,325
2018-03-23T12:07:47.551Z,330
2018-03-23T12:08:13.099Z,325
2018-03-23T12:08:38.547Z,320
2018-03-23T12:09:04.078Z,315
2018-03-23T12:09:29.496Z,310
2018-03-23T12:09:54.990Z,305
2018-03-23T12:10:20.471Z,300
2018-03-23T12:10:45.957Z,300
2018-03-23T12:11:11.469Z,305
2018-03-23T12:11:36.951Z,310
2018-03-23T12:12:02.447Z,305
2018-03-23T12:12:27.931Z,305
2018-03-23T12:12:53.438Z,300
2018-03-23T12:13:18.909Z,295
2018-03-23T12:13:44.401Z,295
2018-03-23T12:14:09.879Z,295
2018-03-23T12:14:35.345Z,290
2018-03-23T12:15:00.862Z,290
2018-03-23T12:15:26.361Z,290
2018-03-23T12:15:51.867Z,290
2018-03-23T12:16:17.373Z,290
2018-03-23T12:16:42.807Z,295
2018-03-23T12:17:08.310Z,300
2018-03-23T12:17:33.802Z,305
2018-03-23T12:17:59.275Z,305
2018-03-23T12:18:24.793Z,310
2018-03-23T12:18:50.390Z,310
2018-03-23T12:19:15.910Z,310
2018-03-23T12:19:41.428Z,310
2018-03-23T12:20:06.922Z,310
2018-03-23T12:20:32.396Z,305
2018-03-23T12:20:57.935Z,300
2018-03-23T12:21:23.426Z,295
2018-03-23T12:21:48.943Z,290
2018-03-23T12:22:14.453Z,290
2018-03-23T12:22:39.981Z,295
2018-03-23T12:23:05.426Z,290
2018-03-23T12:23:30.911Z,280
2018-03-23T12:23:56.437Z,280
2018-03-23T12:24:21.968Z,285
2018-03-23T12:24:47.448Z,295
2018-03-23T12:25:12.951Z,295
2018-03-23T12:25:38.522Z,295
2018-03-23T12:26:03.988Z,295
2018-03-23T12:26:29.478Z,290
2018-03-23T12:26:54.961Z,280
2018-03-23T12:27:20.505Z,265
2018-03-23T12:27:46.007Z,255
2018-03-23T12:28:11.456Z,255
2018-03-23T12:28:36.988Z,250
2018-03-23T12:29:02.478Z,240
2018-03-23T12:29:27.964Z,230
2018-03-23T12:29:53.481Z,225
2018-03-23T12:30:19.004Z,225
2018-03-23T12:30:44.526Z,220
2018-03-23T12:31:09.984Z,210
2018-03-23T12:31:35.470Z,200
2018-03-23T12:32:01.095Z,195
2018-03-23T12:32:26.569Z,190
2018-03-23T12:32:52.069Z,185
2018-03-23T12:33:17.573Z,185
2018-03-23T12:33:43.112Z,190
2018-03-23T12:34:08.632Z,195
2018-03-23T12:34:34.120Z,200
2018-03-23T12:34:59.625Z,200
2018-03-23T12:35:25.127Z,200
2018-03-23T12:35:50.631Z,205
2018-03-23T12:36:16.097Z,200
2018-03-23T12:36:41.629Z,185
2018-03-23T12:37:07.096Z,170
2018-03-23T12:37:32.658Z,155
2018-03-23T12:37:58.138Z,150
2018-03-23T12:38:23.625Z,155
2018-03-23T12:38:49.117Z,160
2018-03-23T12:39:14.588Z,165
2018-03-23T12:39:40.121Z,165
2018-03-23T12:40:05.612Z,160
2018-03-23T12:40:31.098Z,170
2018-03-23T12:40:56.651Z,175
2018-03-23T12:41:22.147Z,180
2018-03-23T12:41:47.739Z,185
2018-03-23T12:42:13.281Z,185
2018-03-23T12:42:38.702Z,185
2018-03-23T12:43:04.213Z,170
2018-03-23T12:43:29.711Z,165
2018-03-23T12:43:55.256Z,155
2018-03-23T12:44:20.716Z,155
2018-03-23T12:44:46.222Z,160
2018-03-23T12:45:11.714Z,170
2018-03-23T12:45:37.271Z,180
2018-03-23T12:46:02.717Z,185
2018-03-23T12:47:16.508Z,185
2018-03-23T12:47:42.286Z,185
2018-03-23T12:48:07.793Z,185
2018-03-23T12:48:33.310Z,190
2018-03-23T12:48:58.855Z,195
2018-03-23T12:49:24.321Z,195
2018-03-23T12:49:49.839Z,195
2018-03-23T12:50:15.331Z,205
2018-03-23T12:50:41.203Z,215
2018-03-23T12:51:06.673Z,225
2018-03-23T12:51:32.191Z,230
2018-03-23T12:51:57.890Z,225
2018-03-23T12:52:23.283Z,220
2018-03-23T12:52:48.851Z,205
2018-03-23T12:53:14.332Z,190
2018-03-23T12:53:40.050Z,180
2018-03-23T12:54:05.620Z,170
2018-03-23T12:54:31.095Z,170
2018-03-23T12:54:56.871Z,170
2018-03-23T12:55:23.064Z,180
2018-03-23T12:55:48.603Z,180
2018-03-23T12:56:14.120Z,180
2018-03-23T12:56:39.653Z,170
2018-03-23T12:57:05.122Z,165
2018-03-23T12:57:30.626Z,155
2018-03-23T12:57:56.205Z,150
2018-03-23T12:58:21.680Z,140
2018-03-23T12:58:47.132Z,140
2018-03-23T12:59:12.640Z,150
2018-03-23T12:59:38.186Z,165
2018-03-23T13:00:03.712Z,185
2018-03-23T13:00:29.212Z,200
2018-03-23T13:00:54.696Z,200
2018-03-23T13:01:20.215Z,200
2018-03-23T13:01:45.688Z,195
2018-03-23T13:02:11.186Z,190
2018-03-23T13:02:36.666Z,185
2018-03-23T13:03:02.157Z,175
2018-03-23T13:03:27.716Z,170
2018-03-23T13:03:53.284Z,160
2018-03-23T13:04:18.781Z,150
2018-03-23T13:04:44.287Z,140
2018-03-23T13:05:09.747Z,135
2018-03-23T13:05:35.250Z,125
2018-03-23T13:06:00.808Z,120
2018-03-23T13:06:26.260Z,110
2018-03-23T13:06:51.750Z,105
2018-03-23T13:07:17.232Z,105
2018-03-23T13:07:42.725Z,100
2018-03-23T13:08:08.246Z,100
2018-03-23T13:08:33.759Z,100
2018-03-23T13:08:59.250Z,95
2018-03-23T13:09:24.789Z,95
2018-03-23T13:09:50.251Z,100
2018-03-23T13:10:15.712Z,100
2018-03-23T13:10:41.188Z,100
2018-03-23T13:11:06.674Z,95
2018-03-23T13:11:32.175Z,95
2018-03-23T13:11:57.660Z,90
2018-03-23T13:12:23.153Z,85
2018-03-23T13:12:48.644Z,80
2018-03-23T13:13:14.136Z,80
2018-03-23T13:13:39.666Z,80
2018-03-23T13:14:05.189Z,80
2018-03-23T13:14:30.677Z,85
2018-03-23T13:14:56.168Z,85
2018-03-23T13:15:21.625Z,85
2018-03-23T13:15:47.172Z,85
2018-03-23T13:16:12.667Z,85
2018-03-23T13:16:38.193Z,85
2018-03-23T13:17:03.683Z,85
2018-03-23T13:17:29.217Z,85
2018-03-23T13:17:54.719Z,85
2018-03-23T13:18:20.188Z,80
2018-03-23T13:18:45.718Z,80
2018-03-23T13:19:11.233Z,80
2018-03-23T13:19:36.674Z,80
2018-03-23T13:20:02.152Z,80
2018-03-23T13:20:27.620Z,85
2018-03-23T13:20:53.095Z,85
2018-03-23T13:21:18.583Z,90
2018-03-23T13:21:44.104Z,90
2018-03-23T13:22:09.589Z,95
2018-03-23T13:22:35.186Z,100
2018-03-23T13:23:00.646Z,100
2018-03-23T13:23:26.142Z,100
2018-03-23T13:23:51.630Z,100
2018-03-23T13:24:17.189Z,100
2018-03-23T13:24:42.657Z,100
2018-03-23T13:25:08.139Z,95
2018-03-23T13:25:33.776Z,95
2018-03-23T13:25:59.259Z,95
2018-03-23T13:26:24.746Z,95
2018-03-23T13:26:50.253Z,100
2018-03-23T13:27:15.737Z,110
2018-03-23T13:27:41.242Z,130
2018-03-23T13:28:06.758Z,145
2018-03-23T13:28:32.244Z,160
2018-03-23T13:28:57.736Z,165
2018-03-23T13:29:23.213Z,165
2018-03-23T13:29:48.719Z,165
2018-03-23T13:30:14.226Z,165
2018-03-23T13:30:39.761Z,170
2018-03-23T13:31:05.305Z,170
2018-03-23T13:31:30.822Z,170
2018-03-23T13:31:56.276Z,170
2018-03-23T13:32:21.741Z,170
2018-03-23T13:32:47.284Z,165
2018-03-23T13:33:12.787Z,160
2018-03-23T13:34:42.043Z,140
2018-03-23T13:35:07.508Z,140
2018-03-23T13:35:33.017Z,145
2018-03-23T13:35:58.476Z,150
2018-03-23T13:36:23.987Z,150
2018-03-23T13:36:49.487Z,150
2018-03-23T13:37:15.005Z,150
2018-03-23T13:37:40.480Z,155
2018-03-23T13:38:05.994Z,160
2018-03-23T13:38:31.514Z,155
2018-03-23T13:38:57.028Z,150
2018-03-23T13:39:22.506Z,140
2018-03-23T13:39:47.972Z,135
2018-03-23T13:40:13.448Z,145
2018-03-23T13:40:38.902Z,145
2018-03-23T13:41:04.376Z,145
2018-03-23T13:41:29.909Z,140
2018-03-23T13:41:55.379Z,140
2018-03-23T13:42:20.817Z,135
2018-03-23T13:42:46.318Z,130
2018-03-23T13:43:11.821Z,125
2018-03-23T13:44:30.771Z,115
2018-03-23T13:44:56.284Z,110
2018-03-23T13:45:21.714Z,115
2018-03-23T13:45:47.179Z,125
2018-03-23T13:46:12.635Z,130
2018-03-23T13:46:38.122Z,130
2018-03-23T13:47:03.585Z,130
2018-03-23T13:47:29.068Z,135
2018-03-23T13:47:54.583Z,135
2018-03-23T13:48:20.084Z,135
2018-03-23T13:48:45.564Z,135
2018-03-23T13:49:11.043Z,135
2018-03-23T13:49:36.503Z,135
2018-03-23T13:50:02.102Z,130
2018-03-23T13:50:27.485Z,130
2018-03-23T13:50:52.949Z,130
2018-03-23T13:51:18.413Z,125
2018-03-23T13:51:43.892Z,120
2018-03-23T13:52:09.369Z,120
2018-03-23T13:52:34.846Z,125
2018-03-23T13:53:00.332Z,140
2018-03-23T13:53:25.795Z,150
2018-03-23T13:53:51.290Z,160
2018-03-23T13:54:16.805Z,160
2018-03-23T13:54:42.356Z,160
2018-03-23T13:55:07.816Z,155
2018-03-23T13:55:33.328Z,155
2018-03-23T13:55:58.760Z,155
2018-03-23T13:56:24.260Z,150
2018-03-23T13:56:49.725Z,145
2018-03-23T13:57:15.245Z,140
2018-03-23T13:57:40.727Z,140
2018-03-23T13:58:06.189Z,145
2018-03-23T13:58:31.719Z,145
2018-03-23T13:58:57.191Z,140
2018-03-23T13:59:22.694Z,145
2018-03-23T13:59:48.257Z,135
2018-03-23T14:00:13.738Z,130
2018-03-23T14:00:39.230Z,130
2018-03-23T14:01:04.667Z,125
2018-03-23T14:01:30.141Z,125
2018-03-23T14:01:55.623Z,125
2018-03-23T14:02:21.099Z,125
2018-03-23T14:02:46.622Z,125
2018-03-23T14:03:12.122Z,125
2018-03-23T14:03:37.649Z,125
2018-03-23T14:04:03.080Z,120
2018-03-23T14:04:28.598Z,120
2018-03-23T14:04:54.103Z,120
2018-03-23T14:05:19.566Z,120
2018-03-23T14:05:45.041Z,120
2018-03-23T14:06:10.492Z,115
2018-03-23T14:06:35.973Z,115
2018-03-23T14:07:01.442Z,115
2018-03-23T14:07:26.936Z,120
2018-03-23T14:07:52.430Z,120
2018-03-23T14:08:17.930Z,120
2018-03-23T14:08:43.354Z,120
2018-03-23T14:09:08.829Z,115
2018-03-23T14:09:34.335Z,115
2018-03-23T14:09:59.846Z,110
2018-03-23T14:10:25.419Z,110
2018-03-23T14:10:50.895Z,105
2018-03-23T14:11:16.339Z,105
2018-03-23T14:11:41.936Z,105
2018-03-23T14:12:07.369Z,100
2018-03-23T14:13:31.523Z,95
2018-03-23T14:13:56.947Z,95
2018-03-23T14:14:22.417Z,95
2018-03-23T14:14:47.927Z,95
2018-03-23T14:15:13.391Z,95
2018-03-23T14:15:38.890Z,90
2018-03-23T14:16:04.402Z,90
2018-03-23T14:16:29.894Z,85
2018-03-23T14:16:55.478Z,90
2018-03-23T14:17:20.836Z,90
2018-03-23T14:17:46.404Z,95
2018-03-23T14:18:11.869Z,95
2018-03-23T14:18:37.377Z,95
2018-03-23T14:19:02.914Z,95
2018-03-23T14:19:28.403Z,90
2018-03-23T14:19:53.897Z,85
2018-03-23T14:20:19.451Z,85
2018-03-23T14:20:44.880Z,85
2018-03-23T14:21:10.349Z,90
2018-03-23T14:21:36.087Z,95
2018-03-23T14:22:01.640Z,95
2018-03-23T14:22:27.070Z,90
2018-03-23T14:22:52.562Z,85
2018-03-23T14:23:18.097Z,80
2018-03-23T14:23:43.507Z,80
2018-03-23T14:24:08.971Z,80
2018-03-23T14:24:34.432Z,85
2018-03-23T14:24:59.923Z,85
2018-03-23T14:25:25.367Z,85
2018-03-23T14:25:50.965Z,80
2018-03-23T14:26:16.531Z,80
2018-03-23T14:26:42.012Z,85
2018-03-23T14:27:07.460Z,85
2018-03-23T14:27:32.957Z,80
2018-03-23T14:27:58.743Z,75
2018-03-23T14:28:24.177Z,70
2018-03-23T14:28:49.913Z,75
2018-03-23T14:29:15.254Z,80
2018-03-23T14:29:40.739Z,85
2018-03-23T14:30:59.651Z,85
2018-03-23T14:31:25.199Z,80
2018-03-23T14:31:50.756Z,70
2018-03-23T14:32:16.282Z,65
2018-03-23T14:32:41.714Z,60
2018-03-23T14:33:07.177Z,60
2018-03-23T14:33:32.702Z,60
2018-03-23T14:33:58.097Z,65
2018-03-23T14:34:23.798Z,65
2018-03-23T14:34:49.115Z,65
2018-03-23T14:35:57.869Z,65
2018-03-23T14:36:23.351Z,65
2018-03-23T14:36:48.808Z,70
2018-03-23T14:37:14.282Z,75
2018-03-23T14:37:39.719Z,80
2018-03-23T14:38:05.196Z,85
2018-03-23T14:38:30.665Z,80
2018-03-23T14:38:56.173Z,80
2018-03-23T14:39:21.740Z,80
2018-03-23T14:39:47.204Z,80
2018-03-23T14:40:12.658Z,75
2018-03-23T14:40:38.238Z,70
2018-03-23T14:41:03.687Z,65
2018-03-23T14:41:29.177Z,60
2018-03-23T14:41:54.645Z,55
2018-03-23T14:42:20.175Z,55
2018-03-23T14:42:45.676Z,55
2018-03-23T14:43:11.115Z,55
2018-03-23T14:43:36.635Z,60
2018-03-23T14:44:02.106Z,60
2018-03-23T14:44:27.681Z,60
2018-03-23T14:44:53.134Z,55
2018-03-23T14:45:18.603Z,55
2018-03-23T14:45:44.174Z,55
2018-03-23T14:46:09.629Z,55
2018-03-23T14:46:35.161Z,60
2018-03-23T14:47:00.564Z,55
2018-03-23T14:47:26.082Z,55
2018-03-23T14:47:51.628Z,55
2018-03-23T14:48:17.097Z,55
2018-03-23T14:48:42.585Z,55
2018-03-23T14:49:08.102Z,60
2018-03-23T14:49:33.659Z,65
2018-03-23T14:49:59.048Z,75
2018-03-23T14:50:24.498Z,75
2018-03-23T14:50:50.053Z,70
2018-03-23T14:51:15.559Z,70
2018-03-23T14:51:41.002Z,70
2018-03-23T14:52:06.496Z,75
2018-03-23T14:52:31.985Z,80
2018-03-23T14:52:57.679Z,85
2018-03-23T14:53:23.359Z,85
2018-03-23T14:53:48.929Z,90
2018-03-23T14:54:14.417Z,95
2018-03-23T14:55:35.437Z,100
2018-03-23T14:56:00.925Z,105
2018-03-23T14:56:26.400Z,105
2018-03-23T14:56:51.891Z,105
2018-03-23T14:57:17.343Z,105
2018-03-23T14:57:42.852Z,100
2018-03-23T14:58:08.317Z,100
2018-03-23T14:58:33.775Z,100
2018-03-23T14:58:59.347Z,100
2018-03-23T14:59:24.798Z,100
2018-03-23T14:59:50.299Z,95
2018-03-23T15:00:15.800Z,95
2018-03-23T15:00:41.282Z,95
2018-03-23T15:01:06.791Z,90
2018-03-23T15:01:32.505Z,90
2018-03-23T15:01:57.947Z,95
2018-03-23T15:02:23.525Z,95
2018-03-23T15:02:48.999Z,100
2018-03-23T15:03:14.466Z,105
2018-03-23T15:03:39.985Z,105
2018-03-23T15:04:05.441Z,105
2018-03-23T15:04:30.979Z,105
2018-03-23T15:04:56.444Z,100
2018-03-23T15:05:22.096Z,95
2018-03-23T15:05:47.659Z,90
2018-03-23T15:06:13.132Z,90
2018-03-23T15:06:38.631Z,85
2018-03-23T15:07:04.100Z,85
2018-03-23T15:07:29.700Z,80
2018-03-23T15:07:55.326Z,80
2018-03-23T15:08:20.732Z,80
2018-03-23T15:08:46.188Z,85
2018-03-23T15:09:11.693Z,85
2018-03-23T15:09:37.166Z,90
2018-03-23T15:10:02.667Z,95
2018-03-23T15:10:28.209Z,95
2018-03-23T15:10:53.683Z,100
2018-03-23T15:11:19.183Z,95
2018-03-23T15:11:44.684Z,95
2018-03-23T15:12:10.173Z,95
2018-03-23T15:12:35.646Z,100
2018-03-23T15:13:01.178Z,105
2018-03-23T15:13:26.664Z,115
2018-03-23T15:13:52.131Z,115
2018-03-23T15:14:17.680Z,110
2018-03-23T15:14:43.128Z,105
2018-03-23T15:15:08.626Z,100
2018-03-23T15:15:34.173Z,95
2018-03-23T15:15:59.659Z,95
2018-03-23T15:16:25.063Z,95
2018-03-23T15:16:50.548Z,95
2018-03-23T15:17:16.025Z,95
2018-03-23T15:17:41.539Z,95
2018-03-23T15:18:07.036Z,95
2018-03-23T15:18:32.627Z,90
2018-03-23T15:18:58.029Z,90
2018-03-23T15:19:23.526Z,85
2018-03-23T15:19:49.017Z,80
2018-03-23T15:20:14.521Z,80
2018-03-23T15:20:40.012Z,80
2018-03-23T15:21:05.498Z,80
2018-03-23T15:21:30.955Z,80
2018-03-23T15:21:56.445Z,80
2018-03-23T15:22:21.969Z,80
2018-03-23T15:22:47.495Z,80
2018-03-23T15:23:13.021Z,80
2018-03-23T15:23:38.526Z,80
2018-03-23T15:24:04.003Z,80
2018-03-23T15:24:29.497Z,80
2018-03-23T15:24:54.993Z,80
2018-03-23T15:25:20.490Z,85
2018-03-23T15:25:46.110Z,85